createdAt,value
2018-07-12T00:01:30.993Z,15.42
2018-07-12T00:03:59.076Z,15.42
2018-07-12T00:06:26.944Z,15.45
2018-07-12T00:08:54.779Z,15.48
2018-07-12T00:11:23.730Z,15.54
2018-07-12T00:13:52.556Z,15.34
2018-07-12T00:16:20.400Z,15.45
2018-07-12T00:18:48.246Z,15.50
2018-07-12T00:21:16.144Z,15.43
2018-07-12T00:23:43.938Z,15.47
2018-07-12T00:26:12.603Z,15.56
2018-07-12T00:28:42.397Z,15.62
2018-07-12T00:31:10.901Z,15.61
2018-07-12T00:33:40.733Z,15.59
2018-07-12T00:36:09.401Z,15.51
2018-07-12T00:38:37.642Z,15.37
2018-07-12T00:41:05.512Z,15.48
2018-07-12T00:43:33.465Z,15.43
2018-07-12T00:46:01.557Z,15.45
2018-07-12T00:48:30.220Z,15.49
2018-07-12T00:50:59.997Z,15.34
2018-07-12T00:53:29.286Z,15.32
2018-07-12T00:55:57.337Z,15.26
2018-07-12T00:58:25.489Z,15.28
2018-07-12T01:00:54.171Z,15.20
2018-07-12T01:03:22.507Z,15.22
2018-07-12T01:05:51.795Z,15.23
2018-07-12T01:08:21.259Z,15.27
2018-07-12T01:10:49.597Z,15.30
2018-07-12T01:13:18.379Z,15.39
2018-07-12T01:15:46.540Z,15.42
2018-07-12T01:18:14.358Z,15.51
2018-07-12T01:20:43.443Z,15.49
2018-07-12T01:23:11.568Z,15.53
2018-07-12T01:25:39.454Z,15.52
2018-07-12T01:28:09.350Z,15.55
2018-07-12T01:30:37.967Z,15.53
2018-07-12T01:33:05.790Z,15.49
2018-07-12T01:35:33.645Z,15.51
2018-07-12T01:38:01.696Z,15.53
2018-07-12T01:40:29.554Z,15.52
2018-07-12T01:42:57.796Z,15.59
2018-07-12T01:45:25.639Z,15.65
2018-07-12T01:47:54.074Z,15.64
2018-07-12T01:50:23.027Z,15.66
2018-07-12T01:52:50.861Z,15.60
2018-07-12T01:55:19.104Z,15.61
2018-07-12T01:57:46.959Z,15.58
2018-07-12T02:00:15.019Z,15.56
2018-07-12T02:02:44.041Z,15.54
2018-07-12T02:05:14.617Z,15.48
2018-07-12T02:07:43.420Z,15.46
2018-07-12T02:10:12.073Z,15.33
2018-07-12T02:12:40.309Z,15.32
2018-07-12T02:15:08.145Z,15.30
2018-07-12T02:17:38.071Z,15.23
2018-07-12T02:20:05.912Z,15.21
2018-07-12T02:22:33.790Z,15.24
2018-07-12T02:25:02.172Z,15.20
2018-07-12T02:27:30.069Z,15.10
2018-07-12T02:29:58.008Z,15.08
2018-07-12T02:32:25.856Z,15.10
2018-07-12T02:34:55.160Z,15.14
2018-07-12T02:37:23.236Z,15.20
2018-07-12T02:39:51.089Z,15.24
2018-07-12T02:42:19.812Z,15.14
2018-07-12T02:44:47.737Z,15.10
2018-07-12T02:47:15.607Z,14.93
2018-07-12T02:49:43.495Z,14.88
2018-07-12T02:52:11.384Z,14.89
2018-07-12T02:54:39.930Z,14.91
2018-07-12T02:57:07.797Z,14.86
2018-07-12T02:59:35.662Z,14.88
2018-07-12T03:02:03.592Z,14.99
2018-07-12T03:04:31.784Z,15.02
2018-07-12T03:07:00.396Z,14.96
2018-07-12T03:09:28.520Z,15.03
2018-07-12T03:11:57.662Z,15.06
2018-07-12T03:14:25.767Z,15.09
2018-07-12T03:16:53.947Z,15.07
2018-07-12T03:19:22.223Z,14.98
2018-07-12T03:21:50.080Z,15.07
2018-07-12T03:24:18.369Z,15.12
2018-07-12T03:26:46.243Z,15.03
2018-07-12T03:29:15.289Z,15.00
2018-07-12T03:31:43.958Z,14.96
2018-07-12T03:34:11.813Z,14.93
2018-07-12T03:36:40.536Z,14.93
2018-07-12T03:39:08.825Z,14.97
2018-07-12T03:41:37.543Z,15.08
2018-07-12T03:44:05.395Z,15.11
2018-07-12T03:46:33.355Z,15.07
2018-07-12T03:49:02.995Z,15.14
2018-07-12T03:51:31.568Z,15.20
2018-07-12T03:53:59.387Z,15.21
2018-07-12T03:56:27.593Z,15.22
2018-07-12T03:58:55.993Z,15.23
2018-07-12T04:01:23.849Z,15.26
2018-07-12T04:03:52.481Z,15.30
2018-07-12T04:06:21.241Z,15.29
2018-07-12T04:08:49.592Z,15.29
2018-07-12T04:11:17.699Z,15.34
2018-07-12T04:13:45.576Z,15.41
2018-07-12T04:16:14.102Z,15.44
2018-07-12T04:18:43.160Z,15.31
2018-07-12T04:21:11.432Z,15.38
2018-07-12T04:23:40.216Z,15.52
2018-07-12T04:26:08.085Z,15.43
2018-07-12T04:28:36.537Z,15.32
2018-07-12T04:31:04.390Z,15.33
2018-07-12T04:33:32.665Z,15.26
2018-07-12T04:36:00.942Z,15.22
2018-07-12T04:38:29.093Z,15.21
2018-07-12T04:40:57.212Z,15.18
2018-07-12T04:43:26.192Z,15.25
2018-07-12T04:45:54.040Z,15.36
2018-07-12T04:48:22.884Z,15.36
2018-07-12T04:50:51.379Z,15.42
2018-07-12T04:53:19.233Z,15.31
2018-07-12T04:55:47.069Z,15.54
2018-07-12T04:58:15.666Z,15.59
2018-07-12T05:00:43.665Z,15.52
2018-07-12T05:03:12.472Z,15.51
2018-07-12T05:05:40.297Z,15.59
2018-07-12T05:08:10.704Z,15.58
2018-07-12T05:10:38.944Z,15.77
2018-07-12T05:13:06.802Z,15.62
2018-07-12T05:15:35.351Z,15.79
2018-07-12T05:18:04.057Z,15.73
2018-07-12T05:20:32.531Z,15.75
2018-07-12T05:23:00.399Z,15.88
2018-07-12T05:25:28.491Z,15.92
2018-07-12T05:27:57.292Z,15.91
2018-07-12T05:30:25.136Z,15.86
2018-07-12T05:32:53.772Z,15.98
2018-07-12T05:35:21.864Z,16.01
2018-07-12T05:37:51.556Z,16.23
2018-07-12T05:40:20.579Z,16.23
2018-07-12T05:42:50.195Z,16.32
2018-07-12T05:45:19.697Z,16.37
2018-07-12T05:47:49.925Z,16.44
2018-07-12T05:50:20.237Z,16.45
2018-07-12T05:52:49.814Z,16.54
2018-07-12T05:55:19.129Z,16.52
2018-07-12T05:57:49.508Z,16.53
2018-07-12T06:00:18.852Z,16.63
2018-07-12T06:02:48.850Z,16.67
2018-07-12T06:05:18.635Z,16.81
2018-07-12T06:07:47.944Z,16.81
2018-07-12T06:10:17.263Z,16.74
2018-07-12T06:12:47.017Z,16.89
2018-07-12T06:15:18.581Z,16.84
2018-07-12T06:17:49.380Z,16.82
2018-07-12T06:20:18.699Z,16.86
2018-07-12T06:22:48.852Z,16.72
2018-07-12T06:25:18.593Z,16.97
2018-07-12T06:27:47.933Z,16.93
2018-07-12T06:30:17.580Z,16.95
2018-07-12T06:32:46.928Z,16.98
2018-07-12T06:35:16.461Z,16.95
2018-07-12T06:37:45.780Z,16.91
2018-07-12T06:40:15.107Z,16.98
2018-07-12T06:42:44.430Z,16.89
2018-07-12T06:45:13.752Z,16.83
2018-07-12T06:47:43.488Z,16.79
2018-07-12T06:50:13.107Z,16.89
2018-07-12T06:52:42.558Z,16.90
2018-07-12T06:55:13.794Z,16.92
2018-07-12T06:57:43.357Z,16.92
2018-07-12T07:00:12.834Z,17.06
2018-07-12T07:02:42.548Z,16.72
2018-07-12T07:05:13.692Z,16.82
2018-07-12T07:07:43.789Z,16.73
2018-07-12T07:10:13.194Z,16.53
2018-07-12T07:12:42.557Z,16.80
2018-07-12T07:15:13.226Z,17.01
2018-07-12T07:17:42.547Z,17.30
2018-07-12T07:20:12.498Z,17.55
2018-07-12T07:22:42.667Z,17.76
2018-07-12T07:25:12.329Z,17.76
2018-07-12T07:27:41.900Z,18.00
2018-07-12T07:30:11.625Z,17.67
2018-07-12T07:32:42.133Z,17.90
2018-07-12T07:35:13.272Z,17.93
2018-07-12T07:37:43.096Z,18.20
2018-07-12T07:40:12.428Z,18.17
2018-07-12T07:42:42.258Z,18.08
2018-07-12T07:45:11.594Z,18.19
2018-07-12T07:47:40.940Z,18.42
2018-07-12T07:50:11.273Z,18.72
2018-07-12T07:52:41.047Z,18.57
2018-07-12T07:55:11.282Z,18.68
2018-07-12T07:57:40.628Z,18.71
2018-07-12T08:00:10.684Z,18.67
2018-07-12T08:02:40.362Z,18.59
2018-07-12T08:05:09.797Z,18.78
2018-07-12T08:07:39.153Z,18.79
2018-07-12T08:10:08.498Z,18.91
2018-07-12T08:12:37.840Z,19.13
2018-07-12T08:15:07.489Z,19.20
2018-07-12T08:17:37.221Z,18.99
2018-07-12T08:20:06.890Z,19.03
2018-07-12T08:22:36.727Z,19.05
2018-07-12T08:25:06.123Z,18.94
2018-07-12T08:27:35.450Z,19.23
2018-07-12T08:30:05.175Z,19.36
2018-07-12T08:32:35.276Z,19.30
2018-07-12T08:35:05.506Z,19.43
2018-07-12T08:37:35.844Z,19.48
2018-07-12T08:40:05.190Z,19.24
2018-07-12T08:42:34.879Z,19.48
2018-07-12T08:45:04.183Z,19.57
2018-07-12T08:47:34.120Z,19.66
2018-07-12T08:50:04.176Z,19.86
2018-07-12T08:52:34.424Z,20.07
2018-07-12T08:55:04.440Z,19.91
2018-07-12T08:57:34.196Z,19.85
2018-07-12T09:00:03.733Z,19.80
2018-07-12T09:02:33.089Z,19.95
2018-07-12T09:05:02.390Z,20.24
2018-07-12T09:07:32.356Z,20.35
2018-07-12T09:10:01.686Z,20.36
2018-07-12T09:12:31.951Z,20.43
2018-07-12T09:15:02.313Z,20.55
2018-07-12T09:17:32.733Z,20.50
2018-07-12T09:20:03.439Z,20.93
2018-07-12T09:22:33.904Z,20.81
2018-07-12T09:25:03.723Z,20.89
2018-07-12T09:27:33.317Z,20.89
2018-07-12T09:30:02.683Z,21.02
2018-07-12T09:32:32.222Z,21.25
2018-07-12T09:35:03.346Z,21.21
2018-07-12T09:37:32.639Z,20.99
2018-07-12T09:40:02.397Z,21.26
2018-07-12T09:42:31.719Z,21.41
2018-07-12T09:45:02.474Z,21.48
2018-07-12T09:47:32.883Z,21.45
2018-07-12T09:50:02.564Z,21.30
2018-07-12T09:52:34.410Z,21.31
2018-07-12T09:55:05.305Z,21.43
2018-07-12T09:57:45.817Z,21.35
2018-07-12T10:00:16.463Z,21.17
2018-07-12T10:02:50.894Z,21.68
2018-07-12T10:05:26.374Z,22.22
2018-07-12T10:08:06.562Z,22.51
2018-07-12T10:10:40.063Z,22.49
2018-07-12T10:13:15.145Z,22.95
2018-07-12T10:15:52.592Z,23.12
2018-07-12T10:18:24.011Z,22.93
2018-07-12T10:20:53.356Z,23.04
2018-07-12T10:23:23.524Z,22.66
2018-07-12T10:25:53.403Z,22.84
2018-07-12T10:28:23.999Z,22.85
2018-07-12T10:30:53.550Z,22.57
2018-07-12T10:33:22.946Z,22.37
2018-07-12T10:35:53.604Z,22.75
2018-07-12T10:38:23.884Z,22.56
2018-07-12T10:40:53.247Z,23.10
2018-07-12T10:43:23.349Z,22.95
2018-07-12T10:45:52.799Z,23.21
2018-07-12T10:48:22.232Z,23.14
2018-07-12T10:50:52.111Z,23.45
2018-07-12T10:53:22.155Z,23.47
2018-07-12T10:55:52.340Z,23.81
2018-07-12T10:58:22.362Z,23.23
2018-07-12T11:00:51.936Z,23.69
2018-07-12T11:03:21.276Z,23.39
2018-07-12T11:05:50.627Z,24.09
2018-07-12T11:08:20.409Z,24.37
2018-07-12T11:10:49.948Z,24.52
2018-07-12T11:13:29.319Z,24.34
2018-07-12T11:15:59.068Z,24.08
2018-07-12T11:18:29.290Z,24.32
2018-07-12T11:20:59.304Z,24.27
2018-07-12T11:23:28.925Z,23.95
2018-07-12T11:25:58.749Z,24.49
2018-07-12T11:28:28.914Z,24.27
2018-07-12T11:30:58.255Z,24.28
2018-07-12T11:33:37.939Z,24.19
2018-07-12T11:36:08.890Z,23.85
2018-07-12T11:38:39.708Z,24.04
2018-07-12T11:41:10.347Z,23.87
2018-07-12T11:43:39.631Z,23.56
2018-07-12T11:46:11.371Z,23.39
2018-07-12T11:48:42.653Z,23.39
2018-07-12T11:51:13.689Z,24.07
2018-07-12T11:53:43.075Z,24.35
2018-07-12T11:56:12.414Z,25.05
2018-07-12T11:58:42.710Z,25.88
2018-07-12T12:01:12.067Z,25.75
2018-07-12T12:03:41.820Z,25.62
2018-07-12T12:06:11.465Z,25.70
2018-07-12T12:08:40.900Z,25.28
2018-07-12T12:11:10.205Z,25.38
2018-07-12T12:13:39.749Z,25.09
2018-07-12T12:16:10.359Z,25.16
2018-07-12T12:18:40.972Z,25.90
2018-07-12T12:21:10.668Z,25.99
2018-07-12T12:23:40.339Z,26.45
2018-07-12T12:26:10.524Z,26.58
2018-07-12T12:28:40.274Z,26.54
2018-07-12T12:31:10.422Z,26.64
2018-07-12T12:33:40.610Z,27.29
2018-07-12T12:36:09.938Z,26.58
2018-07-12T12:38:39.264Z,26.27
2018-07-12T12:41:09.822Z,25.94
2018-07-12T12:43:39.952Z,26.20
2018-07-12T12:46:09.299Z,26.49
2018-07-12T12:48:39.445Z,26.81
2018-07-12T12:51:08.839Z,27.32
2018-07-12T12:53:38.652Z,27.31
2018-07-12T12:56:08.506Z,27.72
2018-07-12T12:58:37.819Z,28.12
2018-07-12T13:01:07.396Z,27.74
2018-07-12T13:03:36.712Z,28.54
2018-07-12T13:06:06.768Z,27.94
2018-07-12T13:08:36.441Z,28.46
2018-07-12T13:11:05.828Z,26.35
2018-07-12T13:13:35.538Z,27.69
2018-07-12T13:16:06.439Z,27.93
2018-07-12T13:18:36.030Z,28.09
2018-07-12T13:21:07.281Z,27.97
2018-07-12T13:23:36.614Z,28.28
2018-07-12T13:26:06.950Z,28.31
2018-07-12T13:28:36.344Z,28.50
2018-07-12T13:31:05.726Z,27.92
2018-07-12T13:33:35.497Z,27.80
2018-07-12T13:36:05.349Z,27.69
2018-07-12T13:38:35.744Z,28.40
2018-07-12T13:41:05.433Z,29.12
2018-07-12T13:43:34.883Z,28.94
2018-07-12T13:46:04.267Z,28.84
2018-07-12T13:48:35.615Z,28.87
2018-07-12T13:51:05.700Z,28.29
2018-07-12T13:53:35.024Z,27.76
2018-07-12T13:56:04.347Z,27.78
2018-07-12T13:58:34.011Z,27.91
2018-07-12T14:01:03.360Z,28.20
2018-07-12T14:03:33.161Z,28.60
2018-07-12T14:06:02.987Z,27.97
2018-07-12T14:08:32.428Z,27.46
2018-07-12T14:11:02.183Z,28.15
2018-07-12T14:13:31.493Z,28.31
2018-07-12T14:16:01.549Z,28.80
2018-07-12T14:18:33.486Z,28.67
2018-07-12T14:21:03.080Z,28.93
2018-07-12T14:23:32.869Z,29.10
2018-07-12T14:26:03.100Z,28.82
2018-07-12T14:28:32.887Z,28.42
2018-07-12T14:31:02.680Z,28.05
2018-07-12T14:33:33.134Z,28.08
2018-07-12T14:36:03.612Z,28.48
2018-07-12T14:38:33.944Z,28.47
2018-07-12T14:41:04.131Z,28.97
2018-07-12T14:43:34.313Z,28.96
2018-07-12T14:46:03.949Z,27.76
2018-07-12T14:48:33.708Z,27.86
2018-07-12T14:51:03.074Z,27.56
2018-07-12T14:53:32.720Z,27.49
2018-07-12T14:56:06.964Z,27.76
2018-07-12T14:58:36.300Z,28.19
2018-07-12T15:01:05.971Z,27.83
2018-07-12T15:03:35.324Z,28.02
2018-07-12T15:06:05.971Z,28.41
2018-07-12T15:08:36.274Z,28.46
2018-07-12T15:11:05.631Z,29.16
2018-07-12T15:13:34.991Z,29.53
2018-07-12T15:16:05.307Z,29.89
2018-07-12T15:18:35.143Z,30.26
2018-07-12T15:21:04.967Z,29.67
2018-07-12T15:23:37.735Z,28.92
2018-07-12T15:26:07.512Z,28.79
2018-07-12T15:28:37.136Z,28.60
2018-07-12T15:31:06.843Z,27.17
2018-07-12T15:33:36.946Z,27.90
2018-07-12T15:36:07.162Z,27.88
2018-07-12T15:38:36.842Z,27.72
2018-07-12T15:41:06.341Z,28.25
2018-07-12T15:43:35.690Z,27.86
2018-07-12T15:46:05.076Z,27.86
2018-07-12T15:48:34.561Z,28.23
2018-07-12T15:51:04.380Z,27.52
2018-07-12T15:53:34.078Z,27.98
2018-07-12T15:56:03.798Z,28.43
2018-07-12T15:58:35.292Z,28.52
2018-07-12T16:01:05.126Z,28.71
2018-07-12T16:03:36.300Z,29.11
2018-07-12T16:06:05.620Z,29.18
2018-07-12T16:08:35.102Z,29.56
2018-07-12T16:11:04.803Z,29.62
2018-07-12T16:13:34.519Z,29.03
2018-07-12T16:16:03.909Z,29.41
2018-07-12T16:18:33.536Z,29.26
2018-07-12T16:21:03.785Z,29.12
2018-07-12T16:23:33.131Z,29.45
2018-07-12T16:26:02.844Z,29.03
2018-07-12T16:28:33.089Z,28.63
2018-07-12T16:31:03.008Z,27.97
2018-07-12T16:33:32.562Z,28.10
2018-07-12T16:36:03.236Z,28.06
2018-07-12T16:38:33.365Z,27.39
2018-07-12T16:41:02.744Z,27.52
2018-07-12T16:43:32.640Z,28.00
2018-07-12T16:46:03.723Z,28.36
2018-07-12T16:48:33.123Z,28.28
2018-07-12T16:51:03.646Z,28.12
2018-07-12T16:53:35.325Z,27.98
2018-07-12T16:56:05.761Z,27.88
2018-07-12T16:58:35.861Z,27.60
2018-07-12T17:01:05.198Z,27.47
2018-07-12T17:03:34.771Z,27.25
2018-07-12T17:06:05.153Z,27.03
2018-07-12T17:08:34.738Z,27.09
2018-07-12T17:11:05.069Z,27.35
2018-07-12T17:13:35.439Z,26.98
2018-07-12T17:16:05.339Z,26.75
2018-07-12T17:18:34.691Z,25.99
2018-07-12T17:21:05.195Z,25.20
2018-07-12T17:23:34.555Z,24.67
2018-07-12T17:26:04.298Z,24.23
2018-07-12T17:28:33.638Z,23.77
2018-07-12T17:31:03.510Z,22.77
2018-07-12T17:33:34.624Z,22.29
2018-07-12T17:36:04.292Z,21.34
2018-07-12T17:38:34.435Z,21.09
2018-07-12T17:41:04.049Z,20.98
2018-07-12T17:43:33.366Z,21.07
2018-07-12T17:46:03.849Z,21.14
2018-07-12T17:48:33.924Z,21.20
2018-07-12T17:51:04.312Z,21.41
2018-07-12T17:53:34.594Z,21.33
2018-07-12T17:56:03.924Z,21.37
2018-07-12T17:58:33.710Z,21.44
2018-07-12T18:01:03.801Z,21.25
2018-07-12T18:03:33.208Z,21.11
2018-07-12T18:06:03.329Z,21.12
2018-07-12T18:08:32.658Z,21.11
2018-07-12T18:11:02.762Z,20.90
2018-07-12T18:13:32.473Z,20.78
2018-07-12T18:16:01.777Z,20.79
2018-07-12T18:18:31.494Z,20.52
2018-07-12T18:21:01.077Z,20.43
2018-07-12T18:23:30.825Z,19.47
2018-07-12T18:26:00.157Z,19.83
2018-07-12T18:28:29.971Z,20.10
2018-07-12T18:31:00.310Z,20.42
2018-07-12T18:33:29.861Z,20.67
2018-07-12T18:35:59.396Z,20.93
2018-07-12T18:38:30.504Z,21.15
2018-07-12T18:41:00.051Z,21.39
2018-07-12T18:43:29.428Z,21.32
2018-07-12T18:45:59.367Z,21.18
2018-07-12T18:48:28.723Z,21.10
2018-07-12T18:50:58.849Z,21.20
2018-07-12T18:53:28.203Z,21.04
2018-07-12T18:55:58.647Z,21.15
2018-07-12T18:58:31.160Z,20.88
2018-07-12T19:01:02.903Z,20.89
2018-07-12T19:03:33.500Z,20.80
2018-07-12T19:06:02.815Z,20.74
2018-07-12T19:08:33.421Z,20.80
2018-07-12T19:11:03.552Z,19.72
2018-07-12T19:13:33.245Z,20.01
2018-07-12T19:16:02.666Z,20.44
2018-07-12T19:18:32.285Z,20.49
2018-07-12T19:21:02.528Z,20.63
2018-07-12T19:23:33.175Z,20.70
2018-07-12T19:26:03.377Z,20.74
2018-07-12T19:28:33.617Z,20.67
2018-07-12T19:31:03.772Z,20.75
2018-07-12T19:33:33.181Z,20.95
2018-07-12T19:36:02.956Z,20.94
2018-07-12T19:38:33.040Z,20.97
2018-07-12T19:41:02.388Z,21.00
2018-07-12T19:43:32.263Z,21.01
2018-07-12T19:46:02.063Z,20.98
2018-07-12T19:48:32.063Z,20.91
2018-07-12T19:51:02.921Z,20.90
2018-07-12T19:53:33.236Z,20.90
2018-07-12T19:56:02.564Z,20.74
2018-07-12T19:58:33.609Z,20.64
2018-07-12T20:01:04.257Z,20.54
2018-07-12T20:03:33.934Z,20.56
2018-07-12T20:06:04.696Z,20.43
2018-07-12T20:08:34.064Z,20.41
2018-07-12T20:11:04.330Z,20.35
2018-07-12T20:13:34.717Z,20.22
2018-07-12T20:16:04.339Z,20.19
2018-07-12T20:18:33.721Z,20.33
2018-07-12T20:21:04.678Z,20.39
2018-07-12T20:23:35.884Z,20.28
2018-07-12T20:26:06.127Z,20.01
2018-07-12T20:28:35.457Z,20.10
2018-07-12T20:31:05.215Z,19.99
2018-07-12T20:33:34.994Z,20.07
2018-07-12T20:36:04.365Z,20.03
2018-07-12T20:38:33.734Z,20.16
2018-07-12T20:41:04.061Z,20.21
2018-07-12T20:43:38.021Z,20.21
2018-07-12T20:46:07.342Z,20.20
2018-07-12T20:48:36.673Z,20.14
2018-07-12T20:51:06.600Z,20.07
2018-07-12T20:53:37.220Z,20.09
2018-07-12T20:56:09.047Z,20.07
2018-07-12T20:58:39.024Z,19.91
2018-07-12T21:01:08.323Z,20.05
2018-07-12T21:03:38.344Z,19.98
2018-07-12T21:06:09.032Z,19.99
2018-07-12T21:08:39.416Z,20.05
2018-07-12T21:11:09.643Z,19.96
2018-07-12T21:13:40.195Z,19.70
2018-07-12T21:16:09.544Z,19.70
2018-07-12T21:18:39.253Z,19.76
2018-07-12T21:21:10.037Z,19.79
2018-07-12T21:23:39.826Z,19.68
2018-07-12T21:26:09.556Z,19.59
2018-07-12T21:28:39.147Z,19.53
2018-07-12T21:31:08.890Z,19.48
2018-07-12T21:33:39.026Z,19.37
2018-07-12T21:36:08.972Z,19.35
2018-07-12T21:38:39.013Z,19.25
2018-07-12T21:41:08.906Z,19.29
2018-07-12T21:43:39.838Z,19.16
2018-07-12T21:46:11.063Z,19.19
2018-07-12T21:48:40.381Z,19.29
2018-07-12T21:51:10.528Z,19.15
2018-07-12T21:53:40.757Z,19.21
2018-07-12T21:56:10.090Z,19.21
2018-07-12T21:58:39.480Z,19.21
2018-07-12T22:01:08.823Z,19.13
2018-07-12T22:03:38.132Z,19.08
2018-07-12T22:06:08.052Z,19.15
2018-07-12T22:08:37.822Z,18.90
2018-07-12T22:11:07.506Z,18.95
2018-07-12T22:13:38.036Z,18.93
2018-07-12T22:16:08.271Z,18.68
2018-07-12T22:18:39.225Z,18.79
2018-07-12T22:21:09.384Z,18.85
2018-07-12T22:23:38.828Z,18.87
2018-07-12T22:26:08.893Z,18.90
2018-07-12T22:28:38.546Z,18.88
2018-07-12T22:31:08.853Z,18.91
2018-07-12T22:33:39.305Z,18.84
2018-07-12T22:36:08.629Z,18.72
2018-07-12T22:38:38.843Z,18.57
2018-07-12T22:41:08.188Z,18.54
2018-07-12T22:43:37.534Z,18.38
2018-07-12T22:46:07.110Z,18.34
2018-07-12T22:48:36.880Z,18.36
2018-07-12T22:51:08.005Z,18.29
2018-07-12T22:53:37.320Z,18.18
2018-07-12T22:56:06.736Z,18.15
2018-07-12T22:58:38.005Z,18.09
2018-07-12T23:01:07.335Z,17.81
2018-07-12T23:03:37.004Z,17.68
2018-07-12T23:06:06.870Z,17.71
2018-07-12T23:08:36.182Z,17.62
2018-07-12T23:11:05.675Z,17.70
2018-07-12T23:13:36.030Z,17.78
2018-07-12T23:16:06.618Z,17.63
2018-07-12T23:18:37.726Z,17.68
2018-07-12T23:21:08.913Z,17.71
2018-07-12T23:23:39.425Z,17.68
2018-07-12T23:26:10.234Z,17.68
2018-07-12T23:28:44.891Z,17.60
2018-07-12T23:31:14.625Z,17.53
2018-07-12T23:33:45.532Z,17.39
2018-07-12T23:36:15.171Z,17.51
2018-07-12T23:38:44.548Z,17.36
2018-07-12T23:41:15.568Z,17.41
2018-07-12T23:43:45.998Z,17.46
2018-07-12T23:46:15.334Z,17.30
2018-07-12T23:48:45.706Z,17.30
2018-07-12T23:51:15.414Z,17.32
2018-07-12T23:53:44.958Z,17.26
2018-07-12T23:56:15.183Z,17.20
2018-07-12T23:58:44.827Z,17.17
